sensor_id;sensor_type;location;lat;lon;timestamp;pressure;altitude;pressure_sealevel;temperature;humidity
75627;BME280;67372;49.404;11.034;2023-05-17T00:00:14;98450.19;;;7.72;62.18
75627;BME280;67372;49.404;11.034;2023-05-17T00:02:41;98449.50;;;7.63;62.98
75627;BME280;67372;49.404;11.034;2023-05-17T00:05:08;98457.03;;;7.60;62.30
75627;BME280;67372;49.404;11.034;2023-05-17T00:07:34;98461.06;;;7.56;62.62
75627;BME280;67372;49.404;11.034;2023-05-17T00:10:01;98460.81;;;7.51;62.90
75627;BME280;67372;49.404;11.034;2023-05-17T00:12:27;98460.78;;;7.44;63.46
75627;BME280;67372;49.404;11.034;2023-05-17T00:14:54;98461.16;;;7.41;63.18
75627;BME280;67372;49.404;11.034;2023-05-17T00:17:20;98455.41;;;7.37;64.56
75627;BME280;67372;49.404;11.034;2023-05-17T00:19:46;98464.75;;;7.33;63.70
75627;BME280;67372;49.404;11.034;2023-05-17T00:22:13;98457.16;;;7.30;63.24
75627;BME280;67372;49.404;11.034;2023-05-17T00:24:39;98464.28;;;7.30;64.15
75627;BME280;67372;49.404;11.034;2023-05-17T00:27:06;98471.00;;;7.26;63.74
75627;BME280;67372;49.404;11.034;2023-05-17T00:29:32;98470.75;;;7.21;64.11
75627;BME280;67372;49.404;11.034;2023-05-17T00:31:59;98477.63;;;7.15;65.03
75627;BME280;67372;49.404;11.034;2023-05-17T00:34:25;98472.69;;;7.12;64.60
75627;BME280;67372;49.404;11.034;2023-05-17T00:36:51;98472.41;;;7.07;64.72
75627;BME280;67372;49.404;11.034;2023-05-17T00:39:18;98471.78;;;7.05;65.24
75627;BME280;67372;49.404;11.034;2023-05-17T00:41:44;98474.19;;;7.00;65.68
75627;BME280;67372;49.404;11.034;2023-05-17T00:44:10;98474.38;;;6.98;64.96
75627;BME280;67372;49.404;11.034;2023-05-17T00:46:37;98479.22;;;6.95;65.85
75627;BME280;67372;49.404;11.034;2023-05-17T00:49:03;98475.56;;;6.96;65.17
75627;BME280;67372;49.404;11.034;2023-05-17T00:51:30;98475.31;;;6.91;66.14
75627;BME280;67372;49.404;11.034;2023-05-17T00:53:57;98474.75;;;6.95;64.56
75627;BME280;67372;49.404;11.034;2023-05-17T00:56:23;98485.53;;;6.94;65.53
75627;BME280;67372;49.404;11.034;2023-05-17T00:58:50;98483.91;;;6.93;64.92
75627;BME280;67372;49.404;11.034;2023-05-17T01:01:16;98487.56;;;6.92;65.61
75627;BME280;67372;49.404;11.034;2023-05-17T01:03:43;98484.09;;;6.91;65.77
75627;BME280;67372;49.404;11.034;2023-05-17T01:06:10;98486.09;;;6.89;65.49
75627;BME280;67372;49.404;11.034;2023-05-17T01:08:37;98485.28;;;6.89;65.76
75627;BME280;67372;49.404;11.034;2023-05-17T01:11:14;98487.13;;;6.88;65.72
75627;BME280;67372;49.404;11.034;2023-05-17T01:14:08;98495.88;;;6.89;65.82
75627;BME280;67372;49.404;11.034;2023-05-17T01:16:43;98495.06;;;6.88;65.43
75627;BME280;67372;49.404;11.034;2023-05-17T01:25:12;98503.03;;;6.88;65.08
75627;BME280;67372;49.404;11.034;2023-05-17T01:27:44;98504.38;;;6.84;65.73
75627;BME280;67372;49.404;11.034;2023-05-17T01:30:14;98510.88;;;6.82;65.75
75627;BME280;67372;49.404;11.034;2023-05-17T01:32:41;98500.91;;;6.84;65.26
75627;BME280;67372;49.404;11.034;2023-05-17T01:35:09;98509.69;;;6.84;64.85
75627;BME280;67372;49.404;11.034;2023-05-17T01:37:36;98515.97;;;6.83;65.50
75627;BME280;67372;49.404;11.034;2023-05-17T01:40:03;98519.84;;;6.81;65.38
75627;BME280;67372;49.404;11.034;2023-05-17T01:42:31;98518.56;;;6.76;65.43
75627;BME280;67372;49.404;11.034;2023-05-17T01:48:30;98522.22;;;6.75;65.57
75627;BME280;67372;49.404;11.034;2023-05-17T01:50:37;98519.13;;;6.72;66.28
75627;BME280;67372;49.404;11.034;2023-05-17T01:53:09;98526.44;;;6.70;66.04
75627;BME280;67372;49.404;11.034;2023-05-17T01:58:07;98520.69;;;6.66;65.78
75627;BME280;67372;49.404;11.034;2023-05-17T02:00:36;98523.84;;;6.62;66.49
75627;BME280;67372;49.404;11.034;2023-05-17T02:03:03;98525.22;;;6.58;66.15
75627;BME280;67372;49.404;11.034;2023-05-17T02:05:30;98530.91;;;6.55;66.34
75627;BME280;67372;49.404;11.034;2023-05-17T02:07:56;98533.91;;;6.52;66.64
75627;BME280;67372;49.404;11.034;2023-05-17T02:10:23;98531.63;;;6.49;67.82
75627;BME280;67372;49.404;11.034;2023-05-17T02:12:49;98531.38;;;6.43;67.01
75627;BME280;67372;49.404;11.034;2023-05-17T02:15:15;98539.88;;;6.39;68.04
75627;BME280;67372;49.404;11.034;2023-05-17T02:17:42;98532.25;;;6.36;67.71
75627;BME280;67372;49.404;11.034;2023-05-17T02:20:08;98539.75;;;6.32;67.14
75627;BME280;67372;49.404;11.034;2023-05-17T02:22:35;98535.00;;;6.28;68.11
75627;BME280;67372;49.404;11.034;2023-05-17T02:25:01;98537.63;;;6.28;68.91
75627;BME280;67372;49.404;11.034;2023-05-17T02:27:28;98537.63;;;6.28;67.10
75627;BME280;67372;49.404;11.034;2023-05-17T02:29:54;98537.00;;;6.26;67.98
75627;BME280;67372;49.404;11.034;2023-05-17T02:32:20;98532.06;;;6.23;68.09
75627;BME280;67372;49.404;11.034;2023-05-17T02:34:47;98530.78;;;6.19;68.72
75627;BME280;67372;49.404;11.034;2023-05-17T02:37:13;98539.25;;;6.14;68.90
75627;BME280;67372;49.404;11.034;2023-05-17T02:39:39;98537.97;;;6.10;69.37
75627;BME280;67372;49.404;11.034;2023-05-17T02:42:06;98536.97;;;6.11;68.87
75627;BME280;67372;49.404;11.034;2023-05-17T02:44:32;98544.09;;;6.10;68.82
75627;BME280;67372;49.404;11.034;2023-05-17T02:46:59;98549.09;;;6.05;68.80
75627;BME280;67372;49.404;11.034;2023-05-17T02:49:25;98537.88;;;6.03;68.83
75627;BME280;67372;49.404;11.034;2023-05-17T02:51:51;98546.16;;;6.00;69.32
75627;BME280;67372;49.404;11.034;2023-05-17T02:54:18;98544.44;;;5.93;69.95
75627;BME280;67372;49.404;11.034;2023-05-17T02:56:44;98545.72;;;5.89;69.79
75627;BME280;67372;49.404;11.034;2023-05-17T02:59:11;98547.72;;;5.86;70.69
75627;BME280;67372;49.404;11.034;2023-05-17T03:01:37;98546.25;;;5.84;70.88
75627;BME280;67372;49.404;11.034;2023-05-17T03:04:03;98549.09;;;5.82;70.67
75627;BME280;67372;49.404;11.034;2023-05-17T03:06:30;98543.97;;;5.81;69.88
75627;BME280;67372;49.404;11.034;2023-05-17T03:08:56;98541.31;;;5.81;70.17
75627;BME280;67372;49.404;11.034;2023-05-17T03:11:23;98552.09;;;5.79;69.55
75627;BME280;67372;49.404;11.034;2023-05-17T03:13:49;98557.56;;;5.78;70.21
75627;BME280;67372;49.404;11.034;2023-05-17T03:16:16;98554.09;;;5.77;70.96
75627;BME280;67372;49.404;11.034;2023-05-17T03:18:43;98557.09;;;5.74;71.01
75627;BME280;67372;49.404;11.034;2023-05-17T03:21:09;98561.56;;;5.74;71.47
75627;BME280;67372;49.404;11.034;2023-05-17T03:23:36;98560.94;;;5.72;70.65
75627;BME280;67372;49.404;11.034;2023-05-17T03:26:02;98568.41;;;5.68;70.76
75627;BME280;67372;49.404;11.034;2023-05-17T03:28:29;98566.72;;;5.67;70.26
75627;BME280;67372;49.404;11.034;2023-05-17T03:30:55;98567.91;;;5.65;71.92
75627;BME280;67372;49.404;11.034;2023-05-17T03:33:21;98576.03;;;5.63;71.08
75627;BME280;67372;49.404;11.034;2023-05-17T03:35:48;98576.19;;;5.62;70.51
75627;BME280;67372;49.404;11.034;2023-05-17T03:38:14;98570.25;;;5.60;71.53
75627;BME280;67372;49.404;11.034;2023-05-17T03:40:41;98576.38;;;5.60;70.53
75627;BME280;67372;49.404;11.034;2023-05-17T03:43:07;98579.03;;;5.60;71.88
75627;BME280;67372;49.404;11.034;2023-05-17T03:45:34;98590.44;;;5.61;71.30
75627;BME280;67372;49.404;11.034;2023-05-17T03:48:00;98592.91;;;5.62;71.41
75627;BME280;67372;49.404;11.034;2023-05-17T03:50:26;98589.25;;;5.63;71.27
75627;BME280;67372;49.404;11.034;2023-05-17T03:52:53;98587.25;;;5.65;71.69
75627;BME280;67372;49.404;11.034;2023-05-17T03:55:19;98590.22;;;5.70;71.49
75627;BME280;67372;49.404;11.034;2023-05-17T03:57:45;98593.50;;;5.72;71.64
75627;BME280;67372;49.404;11.034;2023-05-17T04:00:12;98603.75;;;5.75;71.96
75627;BME280;67372;49.404;11.034;2023-05-17T04:02:39;98597.09;;;5.79;71.72
75627;BME280;67372;49.404;11.034;2023-05-17T04:05:05;98591.44;;;5.82;72.25
75627;BME280;67372;49.404;11.034;2023-05-17T04:07:32;98605.69;;;5.81;72.37
75627;BME280;67372;49.404;11.034;2023-05-17T04:09:58;98603.50;;;5.85;72.35
75627;BME280;67372;49.404;11.034;2023-05-17T04:12:25;98606.16;;;5.93;71.62
75627;BME280;67372;49.404;11.034;2023-05-17T04:14:51;98602.06;;;6.05;71.71
75627;BME280;67372;49.404;11.034;2023-05-17T04:17:17;98610.72;;;6.22;70.46
75627;BME280;67372;49.404;11.034;2023-05-17T04:19:44;98605.16;;;6.32;70.17
75627;BME280;67372;49.404;11.034;2023-05-17T04:22:10;98614.69;;;6.41;70.52
75627;BME280;67372;49.404;11.034;2023-05-17T04:24:37;98618.53;;;6.53;70.52
75627;BME280;67372;49.404;11.034;2023-05-17T04:27:03;98619.22;;;6.70;69.90
75627;BME280;67372;49.404;11.034;2023-05-17T04:29:30;98625.72;;;6.97;68.97
75627;BME280;67372;49.404;11.034;2023-05-17T04:31:56;98635.50;;;7.26;68.14
75627;BME280;67372;49.404;11.034;2023-05-17T04:34:22;98635.72;;;7.60;67.38
75627;BME280;67372;49.404;11.034;2023-05-17T04:36:49;98637.31;;;7.76;66.92
75627;BME280;67372;49.404;11.034;2023-05-17T04:39:15;98643.22;;;7.93;66.78
75627;BME280;67372;49.404;11.034;2023-05-17T04:41:42;98644.41;;;8.05;65.26
75627;BME280;67372;49.404;11.034;2023-05-17T04:44:08;98644.47;;;8.12;64.94
75627;BME280;67372;49.404;11.034;2023-05-17T04:46:35;98639.72;;;8.07;64.85
75627;BME280;67372;49.404;11.034;2023-05-17T04:49:01;98643.38;;;8.06;63.98
75627;BME280;67372;49.404;11.034;2023-05-17T04:51:28;98651.34;;;8.06;64.41
75627;BME280;67372;49.404;11.034;2023-05-17T04:53:55;98655.13;;;8.18;64.23
75627;BME280;67372;49.404;11.034;2023-05-17T04:56:21;98652.63;;;8.10;64.02
75627;BME280;67372;49.404;11.034;2023-05-17T04:58:48;98651.84;;;8.16;64.21
75627;BME280;67372;49.404;11.034;2023-05-17T05:01:16;98653.88;;;8.14;63.77
75627;BME280;67372;49.404;11.034;2023-05-17T05:03:43;98662.53;;;8.23;63.87
75627;BME280;67372;49.404;11.034;2023-05-17T05:06:09;98659.97;;;8.29;63.49
75627;BME280;67372;49.404;11.034;2023-05-17T05:08:35;98663.06;;;8.33;63.17
75627;BME280;67372;49.404;11.034;2023-05-17T05:11:02;98662.72;;;8.36;63.58
75627;BME280;67372;49.404;11.034;2023-05-17T05:13:30;98661.31;;;8.40;63.23
75627;BME280;67372;49.404;11.034;2023-05-17T05:15:56;98662.50;;;8.38;62.86
75627;BME280;67372;49.404;11.034;2023-05-17T05:18:23;98672.59;;;8.27;63.77
75627;BME280;67372;49.404;11.034;2023-05-17T05:20:49;98677.75;;;8.29;63.26
75627;BME280;67372;49.404;11.034;2023-05-17T05:23:16;98692.34;;;8.18;63.67
75627;BME280;67372;49.404;11.034;2023-05-17T05:25:42;98684.19;;;8.20;63.60
75627;BME280;67372;49.404;11.034;2023-05-17T05:28:09;98691.78;;;8.23;63.68
75627;BME280;67372;49.404;11.034;2023-05-17T05:30:35;98691.84;;;8.29;63.63
75627;BME280;67372;49.404;11.034;2023-05-17T05:33:01;98700.84;;;8.28;63.82
75627;BME280;67372;49.404;11.034;2023-05-17T05:35:28;98705.22;;;8.36;64.06
75627;BME280;67372;49.404;11.034;2023-05-17T05:37:56;98701.19;;;8.40;63.45
75627;BME280;67372;49.404;11.034;2023-05-17T05:40:22;98711.25;;;8.45;63.27
75627;BME280;67372;49.404;11.034;2023-05-17T05:42:49;98702.06;;;8.47;63.22
75627;BME280;67372;49.404;11.034;2023-05-17T05:45:15;98706.25;;;8.56;63.08
75627;BME280;67372;49.404;11.034;2023-05-17T05:47:42;98703.06;;;8.68;62.78
75627;BME280;67372;49.404;11.034;2023-05-17T05:50:09;98712.06;;;8.67;62.58
75627;BME280;67372;49.404;11.034;2023-05-17T05:52:35;98704.22;;;8.58;62.62
75627;BME280;67372;49.404;11.034;2023-05-17T05:55:02;98718.91;;;8.54;63.28
75627;BME280;67372;49.404;11.034;2023-05-17T05:57:29;98710.41;;;8.66;63.06
75627;BME280;67372;49.404;11.034;2023-05-17T05:59:55;98720.78;;;8.82;63.33
75627;BME280;67372;49.404;11.034;2023-05-17T06:02:22;98718.19;;;8.88;62.37
75627;BME280;67372;49.404;11.034;2023-05-17T06:04:48;98721.97;;;9.01;62.42
75627;BME280;67372;49.404;11.034;2023-05-17T06:07:15;98727.69;;;9.26;62.44
75627;BME280;67372;49.404;11.034;2023-05-17T06:09:41;98726.84;;;9.25;60.65
75627;BME280;67372;49.404;11.034;2023-05-17T06:12:08;98722.72;;;9.22;61.09
75627;BME280;67372;49.404;11.034;2023-05-17T06:14:34;98732.59;;;9.29;61.42
75627;BME280;67372;49.404;11.034;2023-05-17T06:17:01;98725.75;;;9.47;60.93
75627;BME280;67372;49.404;11.034;2023-05-17T06:19:27;98726.41;;;9.56;60.75
75627;BME280;67372;49.404;11.034;2023-05-17T06:21:54;98732.00;;;9.68;60.10
75627;BME280;67372;49.404;11.034;2023-05-17T06:24:20;98733.28;;;9.44;60.04
75627;BME280;67372;49.404;11.034;2023-05-17T06:26:47;98736.22;;;9.49;61.03
75627;BME280;67372;49.404;11.034;2023-05-17T06:29:13;98736.03;;;9.50;60.73
75627;BME280;67372;49.404;11.034;2023-05-17T06:31:39;98733.63;;;9.62;59.60
75627;BME280;67372;49.404;11.034;2023-05-17T06:34:06;98728.09;;;9.64;59.57
75627;BME280;67372;49.404;11.034;2023-05-17T06:36:33;98740.03;;;9.74;59.04
75627;BME280;67372;49.404;11.034;2023-05-17T06:39:02;98737.03;;;9.91;59.64
75627;BME280;67372;49.404;11.034;2023-05-17T06:41:29;98747.84;;;10.24;59.86
75627;BME280;67372;49.404;11.034;2023-05-17T06:43:55;98743.34;;;10.31;58.67
75627;BME280;67372;49.404;11.034;2023-05-17T06:46:22;98742.75;;;10.35;59.67
75627;BME280;67372;49.404;11.034;2023-05-17T06:48:48;98746.78;;;10.18;58.56
75627;BME280;67372;49.404;11.034;2023-05-17T06:51:16;98748.50;;;10.32;59.22
75627;BME280;67372;49.404;11.034;2023-05-17T06:53:43;98747.91;;;10.43;58.08
75627;BME280;67372;49.404;11.034;2023-05-17T06:56:09;98751.66;;;10.69;58.88
75627;BME280;67372;49.404;11.034;2023-05-17T06:58:35;98741.16;;;10.48;58.09
75627;BME280;67372;49.404;11.034;2023-05-17T07:01:02;98749.78;;;10.63;57.95
75627;BME280;67372;49.404;11.034;2023-05-17T07:03:28;98753.72;;;10.73;57.80
75627;BME280;67372;49.404;11.034;2023-05-17T07:05:55;98748.56;;;10.65;57.48
75627;BME280;67372;49.404;11.034;2023-05-17T07:08:21;98747.13;;;10.69;57.36
75627;BME280;67372;49.404;11.034;2023-05-17T07:10:50;98745.91;;;10.72;57.17
75627;BME280;67372;49.404;11.034;2023-05-17T07:13:16;98745.06;;;10.85;56.95
75627;BME280;67372;49.404;11.034;2023-05-17T07:15:44;98749.00;;;10.95;56.69
75627;BME280;67372;49.404;11.034;2023-05-17T07:18:10;98740.78;;;11.03;56.15
75627;BME280;67372;49.404;11.034;2023-05-17T07:20:37;98743.88;;;11.00;56.13
75627;BME280;67372;49.404;11.034;2023-05-17T07:23:03;98744.69;;;11.01;56.80
75627;BME280;67372;49.404;11.034;2023-05-17T07:25:30;98745.50;;;10.88;56.69
75627;BME280;67372;49.404;11.034;2023-05-17T07:27:56;98743.22;;;11.12;57.61
75627;BME280;67372;49.404;11.034;2023-05-17T07:30:23;98747.38;;;11.14;56.92
75627;BME280;67372;49.404;11.034;2023-05-17T07:32:49;98747.97;;;11.23;56.27
75627;BME280;67372;49.404;11.034;2023-05-17T07:35:16;98746.28;;;11.48;56.09
75627;BME280;67372;49.404;11.034;2023-05-17T07:37:43;98746.91;;;11.50;55.32
75627;BME280;67372;49.404;11.034;2023-05-17T07:40:10;98753.09;;;11.24;55.61
75627;BME280;67372;49.404;11.034;2023-05-17T07:42:37;98753.09;;;11.24;55.88
75627;BME280;67372;49.404;11.034;2023-05-17T07:45:03;98746.75;;;10.92;56.91
75627;BME280;67372;49.404;11.034;2023-05-17T07:47:30;98756.81;;;11.03;56.35
75627;BME280;67372;49.404;11.034;2023-05-17T07:49:57;98762.75;;;11.32;56.13
75627;BME280;67372;49.404;11.034;2023-05-17T07:52:23;98749.81;;;10.96;56.12
75627;BME280;67372;49.404;11.034;2023-05-17T07:54:49;98755.78;;;10.98;56.13
75627;BME280;67372;49.404;11.034;2023-05-17T07:57:16;98756.56;;;10.85;57.62
75627;BME280;67372;49.404;11.034;2023-05-17T07:59:42;98753.50;;;11.01;56.84
75627;BME280;67372;49.404;11.034;2023-05-17T08:02:09;98753.09;;;11.24;55.29
75627;BME280;67372;49.404;11.034;2023-05-17T08:04:35;98754.72;;;11.32;54.71
75627;BME280;67372;49.404;11.034;2023-05-17T08:07:01;98756.38;;;11.20;54.97
75627;BME280;67372;49.404;11.034;2023-05-17T08:09:28;98757.00;;;11.28;54.75
75627;BME280;67372;49.404;11.034;2023-05-17T08:11:54;98753.91;;;11.25;55.45
75627;BME280;67372;49.404;11.034;2023-05-17T08:14:22;98762.75;;;11.32;55.36
75627;BME280;67372;49.404;11.034;2023-05-17T08:19:44;98758.16;;;11.59;55.46
75627;BME280;67372;49.404;11.034;2023-05-17T08:22:10;98757.16;;;11.60;54.63
75627;BME280;67372;49.404;11.034;2023-05-17T08:24:37;98757.94;;;11.74;54.27
75627;BME280;67372;49.404;11.034;2023-05-17T08:27:03;98752.84;;;11.52;54.05
75627;BME280;67372;49.404;11.034;2023-05-17T08:29:30;98752.84;;;11.65;54.66
75627;BME280;67372;49.404;11.034;2023-05-17T08:31:56;98754.44;;;11.73;55.02
75627;BME280;67372;49.404;11.034;2023-05-17T08:34:23;98755.47;;;11.72;55.01
75627;BME280;67372;49.404;11.034;2023-05-17T08:36:49;98754.66;;;11.85;53.95
75627;BME280;67372;49.404;11.034;2023-05-17T08:39:17;98751.69;;;12.06;53.49
75627;BME280;67372;49.404;11.034;2023-05-17T08:41:45;98752.53;;;12.00;53.25
75627;BME280;67372;49.404;11.034;2023-05-17T08:44:13;98759.84;;;12.24;53.81
75627;BME280;67372;49.404;11.034;2023-05-17T08:46:41;98752.84;;;12.62;52.37
75627;BME280;67372;49.404;11.034;2023-05-17T08:49:09;98772.47;;;12.55;51.80
75627;BME280;67372;49.404;11.034;2023-05-17T08:51:37;98765.47;;;12.48;50.92
75627;BME280;67372;49.404;11.034;2023-05-17T08:54:04;98757.00;;;12.57;50.72
75627;BME280;67372;49.404;11.034;2023-05-17T08:56:31;98760.31;;;12.53;50.49
75627;BME280;67372;49.404;11.034;2023-05-17T08:58:58;98759.78;;;12.69;50.74
75627;BME280;67372;49.404;11.034;2023-05-17T09:01:24;98758.78;;;12.95;50.48
75627;BME280;67372;49.404;11.034;2023-05-17T09:03:54;98764.41;;;13.18;49.38
75627;BME280;67372;49.404;11.034;2023-05-17T09:06:22;98753.28;;;13.15;49.67
75627;BME280;67372;49.404;11.034;2023-05-17T09:08:49;98758.31;;;12.73;49.54
75627;BME280;67372;49.404;11.034;2023-05-17T09:13:51;98771.34;;;12.32;50.09
75627;BME280;67372;49.404;11.034;2023-05-17T09:21:37;98763.72;;;12.35;51.98
75627;BME280;67372;49.404;11.034;2023-05-17T09:24:03;98774.03;;;12.25;52.17
75627;BME280;67372;49.404;11.034;2023-05-17T11:01:52;98796.59;;;12.80;50.46
75627;BME280;67372;49.404;11.034;2023-05-17T11:04:21;98795.34;;;12.83;51.17
75627;BME280;67372;49.404;11.034;2023-05-17T11:06:50;98792.94;;;13.00;51.25
75627;BME280;67372;49.404;11.034;2023-05-17T11:09:20;98792.91;;;13.06;50.10
75627;BME280;67372;49.404;11.034;2023-05-17T11:12:08;98786.78;;;12.99;50.69
75627;BME280;67372;49.404;11.034;2023-05-17T11:17:18;98791.66;;;13.09;51.07
75627;BME280;67372;49.404;11.034;2023-05-17T11:22:24;98786.53;;;13.01;50.23
75627;BME280;67372;49.404;11.034;2023-05-17T11:24:52;98787.44;;;12.95;50.69
75627;BME280;67372;49.404;11.034;2023-05-17T11:27:20;98785.91;;;12.80;50.05
75627;BME280;67372;49.404;11.034;2023-05-17T11:29:46;98781.13;;;12.82;49.99
75627;BME280;67372;49.404;11.034;2023-05-17T11:32:13;98782.78;;;12.83;49.77
75627;BME280;67372;49.404;11.034;2023-05-17T11:34:39;98780.69;;;12.85;50.30
75627;BME280;67372;49.404;11.034;2023-05-17T11:37:10;98792.31;;;12.73;49.69
75627;BME280;67372;49.404;11.034;2023-05-17T11:39:36;98789.81;;;12.78;50.77
75627;BME280;67372;49.404;11.034;2023-05-17T11:42:03;98790.22;;;12.75;50.06
75627;BME280;67372;49.404;11.034;2023-05-17T11:44:31;98782.41;;;12.73;50.62
75627;BME280;67372;49.404;11.034;2023-05-17T11:47:05;98778.41;;;12.89;50.68
75627;BME280;67372;49.404;11.034;2023-05-17T11:49:35;98785.69;;;12.82;50.94
75627;BME280;67372;49.404;11.034;2023-05-17T11:52:06;98785.72;;;13.00;50.60
75627;BME280;67372;49.404;11.034;2023-05-17T11:54:33;98779.56;;;13.00;49.91
75627;BME280;67372;49.404;11.034;2023-05-17T11:57:00;98774.19;;;13.00;50.33
75627;BME280;67372;49.404;11.034;2023-05-17T11:59:27;98773.22;;;12.94;50.44
75627;BME280;67372;49.404;11.034;2023-05-17T12:01:54;98777.16;;;12.91;50.50
75627;BME280;67372;49.404;11.034;2023-05-17T12:04:24;98772.22;;;12.88;50.34
75627;BME280;67372;49.404;11.034;2023-05-17T12:06:52;98774.75;;;12.83;50.35
75627;BME280;67372;49.404;11.034;2023-05-17T12:12:02;98779.53;;;12.75;50.67
75627;BME280;67372;49.404;11.034;2023-05-17T12:19:46;98769.63;;;12.44;51.39
75627;BME280;67372;49.404;11.034;2023-05-17T12:22:12;98773.50;;;12.48;51.39
75627;BME280;67372;49.404;11.034;2023-05-17T12:24:40;98775.34;;;12.54;51.94
75627;BME280;67372;49.404;11.034;2023-05-17T12:29:37;98769.25;;;12.72;51.03
75627;BME280;67372;49.404;11.034;2023-05-17T12:37:27;98775.38;;;13.10;50.48
75627;BME280;67372;49.404;11.034;2023-05-17T12:39:53;98768.84;;;13.00;50.20
75627;BME280;67372;49.404;11.034;2023-05-17T12:42:20;98766.34;;;13.05;49.53
75627;BME280;67372;49.404;11.034;2023-05-17T12:44:46;98773.47;;;13.17;49.37
75627;BME280;67372;49.404;11.034;2023-05-17T12:47:13;98771.44;;;13.38;49.37
75627;BME280;67372;49.404;11.034;2023-05-17T12:49:51;98772.97;;;13.70;48.79
75627;BME280;67372;49.404;11.034;2023-05-17T12:52:17;98776.22;;;13.79;48.15
75627;BME280;67372;49.404;11.034;2023-05-17T12:54:44;98776.50;;;13.89;48.40
75627;BME280;67372;49.404;11.034;2023-05-17T12:57:11;98776.13;;;13.86;48.42
75627;BME280;67372;49.404;11.034;2023-05-17T12:59:49;98771.06;;;13.96;48.81
75627;BME280;67372;49.404;11.034;2023-05-17T13:02:21;98776.06;;;13.92;47.98
75627;BME280;67372;49.404;11.034;2023-05-17T13:04:48;98775.63;;;13.77;47.62
75627;BME280;67372;49.404;11.034;2023-05-17T13:07:24;98786.31;;;13.59;48.64
75627;BME280;67372;49.404;11.034;2023-05-17T13:09:50;98782.25;;;13.31;48.78
75627;BME280;67372;49.404;11.034;2023-05-17T13:12:22;98784.38;;;13.16;49.35
75627;BME280;67372;49.404;11.034;2023-05-17T13:14:50;98786.25;;;13.15;49.34
75627;BME280;67372;49.404;11.034;2023-05-17T13:17:24;98786.75;;;13.06;49.57
75627;BME280;67372;49.404;11.034;2023-05-17T13:19:51;98778.09;;;13.04;49.39
75627;BME280;67372;49.404;11.034;2023-05-17T13:22:18;98787.78;;;13.05;49.61
75627;BME280;67372;49.404;11.034;2023-05-17T13:24:44;98786.97;;;13.04;49.82
75627;BME280;67372;49.404;11.034;2023-05-17T13:27:11;98789.38;;;13.12;49.40
75627;BME280;67372;49.404;11.034;2023-05-17T13:29:39;98789.59;;;13.11;48.93
75627;BME280;67372;49.404;11.034;2023-05-17T13:32:07;98788.38;;;13.07;49.42
75627;BME280;67372;49.404;11.034;2023-05-17T13:34:34;98791.78;;;13.20;49.34
75627;BME280;67372;49.404;11.034;2023-05-17T13:37:00;98784.91;;;13.31;48.91
75627;BME280;67372;49.404;11.034;2023-05-17T13:39:27;98785.50;;;13.33;48.47
75627;BME280;67372;49.404;11.034;2023-05-17T13:41:53;98779.94;;;13.35;48.85
75627;BME280;67372;49.404;11.034;2023-05-17T13:44:20;98778.38;;;13.45;48.97
75627;BME280;67372;49.404;11.034;2023-05-17T13:46:46;98782.66;;;13.53;48.22
75627;BME280;67372;49.404;11.034;2023-05-17T14:50:01;98768.00;;;15.65;42.24
75627;BME280;67372;49.404;11.034;2023-05-17T15:00:33;98763.41;;;15.78;39.62
75627;BME280;67372;49.404;11.034;2023-05-17T15:02:59;98764.00;;;15.80;39.45
75627;BME280;67372;49.404;11.034;2023-05-17T15:05:26;98762.13;;;15.80;38.80
75627;BME280;67372;49.404;11.034;2023-05-17T15:13:16;98765.31;;;15.65;40.68
75627;BME280;67372;49.404;11.034;2023-05-17T15:15:43;98768.56;;;15.79;39.58
75627;BME280;67372;49.404;11.034;2023-05-17T15:18:10;98762.13;;;15.45;40.54
75627;BME280;67372;49.404;11.034;2023-05-17T15:20:36;98765.88;;;15.44;40.87
75627;BME280;67372;49.404;11.034;2023-05-17T15:23:03;98764.56;;;15.23;40.77
75627;BME280;67372;49.404;11.034;2023-05-17T15:25:30;98763.19;;;15.44;41.45
75627;BME280;67372;49.404;11.034;2023-05-17T15:27:56;98765.16;;;15.49;40.03
75627;BME280;67372;49.404;11.034;2023-05-17T15:30:23;98755.56;;;15.53;40.61
75627;BME280;67372;49.404;11.034;2023-05-17T15:32:49;98747.28;;;15.43;40.12
75627;BME280;67372;49.404;11.034;2023-05-17T15:35:16;98758.28;;;15.41;39.88
75627;BME280;67372;49.404;11.034;2023-05-17T15:37:42;98763.31;;;15.61;40.49
75627;BME280;67372;49.404;11.034;2023-05-17T15:40:09;98764.34;;;15.83;40.60
75627;BME280;67372;49.404;11.034;2023-05-17T15:42:35;98756.69;;;16.15;41.07
75627;BME280;67372;49.404;11.034;2023-05-17T15:45:02;98752.03;;;16.11;38.91
75627;BME280;67372;49.404;11.034;2023-05-17T15:47:28;98753.09;;;15.98;39.58
75627;BME280;67372;49.404;11.034;2023-05-17T16:34:08;98730.91;;;19.39;35.52
75627;BME280;67372;49.404;11.034;2023-05-17T16:36:35;98733.91;;;19.79;35.07
75627;BME280;67372;49.404;11.034;2023-05-17T16:39:01;98732.50;;;19.67;32.36
75627;BME280;67372;49.404;11.034;2023-05-17T16:41:30;98732.00;;;19.38;32.79
75627;BME280;67372;49.404;11.034;2023-05-17T16:43:56;98734.16;;;18.72;32.71
75627;BME280;67372;49.404;11.034;2023-05-17T16:46:22;98739.31;;;18.24;33.67
75627;BME280;67372;49.404;11.034;2023-05-17T16:48:49;98732.81;;;18.47;33.87
75627;BME280;67372;49.404;11.034;2023-05-17T19:49:36;98842.25;;;12.54;45.71
75627;BME280;67372;49.404;11.034;2023-05-17T19:52:02;98844.13;;;12.47;46.46
75627;BME280;67372;49.404;11.034;2023-05-17T19:54:29;98839.00;;;12.39;46.20
75627;BME280;67372;49.404;11.034;2023-05-17T19:56:55;98846.03;;;12.33;47.17
75627;BME280;67372;49.404;11.034;2023-05-17T19:59:22;98855.09;;;12.25;47.18
75627;BME280;67372;49.404;11.034;2023-05-17T20:01:49;98853.28;;;12.19;47.27
75627;BME280;67372;49.404;11.034;2023-05-17T20:04:15;98851.44;;;12.13;47.61
75627;BME280;67372;49.404;11.034;2023-05-17T20:06:41;98845.28;;;12.06;47.90
75627;BME280;67372;49.404;11.034;2023-05-17T20:09:08;98848.38;;;12.03;47.63